createdAt,value
2022-09-10T01:26:57.046Z,54.38
2022-09-10T01:29:35.000Z,52.73
2022-09-10T01:32:15.985Z,51.11
2022-09-10T01:35:05.801Z,49.61
2022-09-10T01:37:39.063Z,48.39
2022-09-10T01:40:09.189Z,47.65
2022-09-10T01:42:40.482Z,46.73
2022-09-10T01:45:13.905Z,45.50
2022-09-10T01:48:15.441Z,45.03
2022-09-10T01:50:59.642Z,43.68
2022-09-10T01:53:43.507Z,44.03
2022-09-10T01:56:39.990Z,43.80
2022-09-10T01:59:44.839Z,43.31
2022-09-10T02:02:29.638Z,42.18
2022-09-10T02:05:00.032Z,42.02
2022-09-10T02:07:32.733Z,42.57
2022-09-10T02:10:03.500Z,42.52
2022-09-10T02:12:37.434Z,43.04
2022-09-10T02:15:39.110Z,44.25
2022-09-10T02:18:18.521Z,43.15
2022-09-10T02:20:49.906Z,40.53
2022-09-10T02:23:23.196Z,39.69
2022-09-10T02:25:54.186Z,38.75
2022-09-10T02:28:31.014Z,37.98
2022-09-10T02:31:00.277Z,37.50
2022-09-10T02:33:29.130Z,36.49
2022-09-10T02:35:58.530Z,36.30
2022-09-10T02:38:29.899Z,35.48
2022-09-10T02:40:59.938Z,34.42
2022-09-10T02:43:29.799Z,34.25
2022-09-10T02:46:03.786Z,33.33
2022-09-10T02:48:32.914Z,32.93
2022-09-10T02:51:03.240Z,32.12
2022-09-10T02:53:32.393Z,32.34
2022-09-10T02:56:06.005Z,32.01
2022-09-10T02:58:35.618Z,31.69
2022-09-10T03:01:13.443Z,31.43
2022-09-10T03:03:43.673Z,30.46
2022-09-10T03:06:12.766Z,29.98
2022-09-10T03:08:43.343Z,30.74
2022-09-10T03:11:15.910Z,31.93
2022-09-10T03:13:46.374Z,33.45
2022-09-10T03:16:16.144Z,34.30
2022-09-10T03:18:45.426Z,34.91
2022-09-10T03:21:15.777Z,36.22
2022-09-10T03:23:45.481Z,37.27
2022-09-10T03:26:15.589Z,37.69
2022-09-10T03:28:45.665Z,38.50
2022-09-10T03:31:16.724Z,39.46
2022-09-10T03:33:49.813Z,39.76
2022-09-10T03:36:21.437Z,39.89
2022-09-10T03:38:51.475Z,39.99
2022-09-10T03:41:20.294Z,40.29
2022-09-10T03:43:50.283Z,40.40
2022-09-10T03:46:19.093Z,40.32
2022-09-10T03:48:54.647Z,40.45
2022-09-10T03:51:26.277Z,40.22
2022-09-10T03:53:55.105Z,40.33
2022-09-10T03:56:23.806Z,40.67
2022-09-10T03:58:52.792Z,40.57
2022-09-10T04:01:22.127Z,38.35
2022-09-10T04:03:54.599Z,35.90
2022-09-10T04:06:23.599Z,33.82
2022-09-10T04:08:55.837Z,32.34
2022-09-10T04:11:28.099Z,31.17
2022-09-10T04:13:58.773Z,30.73
2022-09-10T04:16:29.636Z,29.65
2022-09-10T04:18:58.693Z,28.64
2022-09-10T04:21:28.001Z,27.57
2022-09-10T04:24:01.237Z,27.16
2022-09-10T04:26:30.953Z,27.07
2022-09-10T04:28:59.896Z,26.30
2022-09-10T04:31:28.735Z,27.62
2022-09-10T04:34:02.565Z,27.88
2022-09-10T04:36:33.963Z,29.65
2022-09-10T04:39:03.892Z,28.86
2022-09-10T04:41:33.672Z,28.61
2022-09-10T04:44:02.656Z,29.44
2022-09-10T04:46:31.584Z,30.37
2022-09-10T04:49:01.451Z,32.45
2022-09-10T04:51:30.189Z,32.94
2022-09-10T04:53:59.982Z,32.32
2022-09-10T04:56:33.475Z,30.84
2022-09-10T04:59:02.814Z,31.60
2022-09-10T05:01:35.935Z,32.52
2022-09-10T05:04:05.273Z,33.61
2022-09-10T05:06:37.709Z,32.88
2022-09-10T05:09:09.543Z,32.52
2022-09-10T05:11:38.672Z,32.66
2022-09-10T05:14:08.064Z,33.56
2022-09-10T05:16:37.581Z,36.79
2022-09-10T05:19:06.921Z,39.78
2022-09-10T05:21:43.132Z,40.12
2022-09-10T05:24:12.376Z,40.99
2022-09-10T05:26:42.596Z,42.51
2022-09-10T05:29:12.184Z,43.89
2022-09-10T05:31:42.249Z,44.44
2022-09-10T05:34:11.653Z,44.56
2022-09-10T05:36:41.376Z,45.34
2022-09-10T05:39:10.267Z,45.21
2022-09-10T05:41:40.674Z,44.98
2022-09-10T05:44:09.616Z,44.85
2022-09-10T05:46:38.648Z,44.83
2022-09-10T05:49:13.714Z,45.13
2022-09-10T05:51:42.999Z,45.64
2022-09-10T05:54:12.133Z,45.97
2022-09-10T05:56:42.304Z,46.04
2022-09-10T05:59:11.918Z,42.27
2022-09-10T06:01:45.576Z,39.66
2022-09-10T06:04:14.773Z,39.68
2022-09-10T06:06:43.587Z,41.41
2022-09-10T06:09:15.302Z,43.45
2022-09-10T06:12:03.942Z,44.11
2022-09-10T06:14:32.933Z,44.73
2022-09-10T06:17:02.063Z,45.21
2022-09-10T06:19:33.014Z,46.22
2022-09-10T06:22:01.883Z,46.42
2022-09-10T06:24:34.457Z,44.25
2022-09-10T06:27:03.253Z,40.90
2022-09-10T06:29:36.739Z,40.71
2022-09-10T06:32:06.605Z,42.28
2022-09-10T06:34:36.411Z,43.31
2022-09-10T06:37:07.399Z,43.81
2022-09-10T06:39:39.216Z,45.90
2022-09-10T06:42:08.630Z,47.79
2022-09-10T06:45:07.077Z,47.68
2022-09-10T06:48:37.245Z,43.91
2022-09-10T06:50:56.857Z,44.22
2022-09-10T06:53:31.293Z,45.44
2022-09-10T06:56:02.403Z,46.28
2022-09-10T06:58:37.433Z,46.71
2022-09-10T07:01:15.664Z,45.93
2022-09-10T07:03:49.254Z,42.81
2022-09-10T07:06:20.200Z,39.50
2022-09-10T07:08:57.644Z,37.54
2022-09-10T07:11:31.020Z,35.75
2022-09-10T07:14:02.082Z,33.72
2022-09-10T07:16:33.528Z,35.72
2022-09-10T07:19:02.673Z,38.24
2022-09-10T07:21:39.964Z,38.99
2022-09-10T07:24:15.742Z,40.15
2022-09-10T07:26:59.302Z,41.51
2022-09-10T07:29:30.375Z,40.11
2022-09-10T07:31:59.753Z,37.04
2022-09-10T07:34:30.690Z,35.35
2022-09-10T07:36:59.536Z,33.83
2022-09-10T07:39:30.005Z,34.24
2022-09-10T07:42:00.858Z,32.93
2022-09-10T07:44:32.078Z,34.02
2022-09-10T07:47:04.071Z,32.94
2022-09-10T07:49:33.914Z,31.81
2022-09-10T07:52:04.745Z,31.58
2022-09-10T07:54:41.477Z,30.07
2022-09-10T07:57:10.492Z,30.88
2022-09-10T07:59:39.501Z,30.28
2022-09-10T08:02:13.690Z,29.16
2022-09-10T08:04:43.580Z,29.45
2022-09-10T08:07:13.697Z,30.27
2022-09-10T08:09:43.847Z,29.59
2022-09-10T08:12:18.241Z,28.75
2022-09-10T08:14:48.583Z,29.54
2022-09-10T08:17:19.396Z,29.59
2022-09-10T08:19:51.280Z,29.66
2022-09-10T08:22:21.271Z,28.78
2022-09-10T08:24:56.699Z,28.47
2022-09-10T08:27:34.979Z,29.69
2022-09-10T08:30:06.921Z,32.07
2022-09-10T08:32:36.875Z,34.52
2022-09-10T08:35:06.818Z,36.70
2022-09-10T08:37:35.772Z,38.92
2022-09-10T08:40:06.367Z,40.54
2022-09-10T08:42:50.781Z,41.58
2022-09-10T08:45:26.032Z,42.71
2022-09-10T08:48:20.199Z,43.03
2022-09-10T08:51:28.927Z,43.31
2022-09-10T08:54:03.495Z,44.56
2022-09-10T08:56:33.865Z,44.44
2022-09-10T08:59:31.513Z,44.63
2022-09-10T09:02:47.629Z,44.85
2022-09-10T09:05:26.345Z,45.06
2022-09-10T09:08:00.120Z,46.16
2022-09-10T09:11:12.747Z,46.81
2022-09-10T09:13:59.196Z,47.60
2022-09-10T09:16:55.639Z,48.50
2022-09-10T09:19:50.030Z,48.88
2022-09-10T09:22:39.345Z,48.71
2022-09-10T09:25:46.747Z,49.39
2022-09-10T09:28:29.555Z,49.39
2022-09-10T09:31:07.502Z,49.19
2022-09-10T09:33:41.571Z,49.29
2022-09-10T09:36:17.657Z,49.49
2022-09-10T09:38:49.709Z,49.41
2022-09-10T09:41:39.935Z,49.57
2022-09-10T09:44:18.055Z,49.84
2022-09-10T09:46:47.067Z,49.67
2022-09-10T09:49:17.289Z,49.86
2022-09-10T09:51:48.988Z,49.85
2022-09-10T09:57:21.032Z,50.30
2022-09-10T09:59:51.105Z,50.12
2022-09-10T10:02:26.824Z,50.27
2022-09-10T10:05:24.549Z,49.87
2022-09-10T10:07:53.371Z,49.91
2022-09-10T10:10:27.217Z,50.02
2022-09-10T10:12:56.526Z,49.93
2022-09-10T10:15:37.976Z,50.19
2022-09-10T10:18:32.198Z,50.19
2022-09-10T10:21:20.563Z,50.08
2022-09-10T10:23:49.724Z,50.16
2022-09-10T10:26:21.491Z,50.43
2022-09-10T10:29:28.360Z,50.65
2022-09-10T10:31:59.832Z,50.43
2022-09-10T10:34:56.378Z,51.32
2022-09-10T10:37:54.220Z,51.44
2022-09-10T10:40:34.329Z,51.98
2022-09-10T10:43:15.588Z,52.32
2022-09-10T10:46:25.837Z,52.32
2022-09-10T10:49:04.207Z,52.46
2022-09-10T10:51:40.099Z,53.06
2022-09-10T10:54:29.866Z,53.13
2022-09-10T10:57:22.870Z,53.47
2022-09-10T11:00:08.222Z,53.40
2022-09-10T11:02:55.813Z,53.80
2022-09-10T11:05:33.392Z,53.95
2022-09-10T11:08:10.687Z,54.06
2022-09-10T11:11:13.972Z,54.09
2022-09-10T11:13:59.594Z,54.25
2022-09-10T11:16:42.156Z,54.52
2022-09-10T11:19:20.598Z,54.72
2022-09-10T11:22:01.766Z,54.67
2022-09-10T11:24:40.241Z,55.02
2022-09-10T11:27:36.427Z,55.41
2022-09-10T11:30:23.156Z,55.73
2022-09-10T11:32:59.230Z,55.55
2022-09-10T11:36:09.342Z,55.98
2022-09-10T11:39:05.079Z,56.15
2022-09-10T11:41:36.626Z,55.87
2022-09-10T11:44:15.051Z,56.55
2022-09-10T11:46:57.721Z,56.81
2022-09-10T11:49:45.847Z,56.88
2022-09-10T11:52:16.360Z,56.87
2022-09-10T11:54:49.399Z,57.09
2022-09-10T11:57:42.526Z,57.47
2022-09-10T12:00:21.565Z,57.52
2022-09-10T12:03:05.674Z,57.87
2022-09-10T12:05:57.152Z,58.17
2022-09-10T12:08:52.471Z,58.42
2022-09-10T12:11:58.434Z,58.38
2022-09-10T12:14:28.655Z,58.14
2022-09-10T12:17:09.306Z,58.45
2022-09-10T12:19:50.669Z,58.72
2022-09-10T12:22:45.395Z,58.67
2022-09-10T12:25:17.198Z,58.86
2022-09-10T12:27:50.599Z,59.60
2022-09-10T12:30:40.007Z,59.90
2022-09-10T12:33:29.840Z,59.70
2022-09-10T12:35:59.417Z,59.30
2022-09-10T12:38:46.714Z,59.82
2022-09-10T12:41:25.764Z,59.86
2022-09-10T12:43:59.212Z,59.87
2022-09-10T12:46:29.427Z,59.46
2022-09-10T12:48:58.779Z,59.65
2022-09-10T12:52:00.744Z,59.83
2022-09-10T12:55:01.217Z,59.70
2022-09-10T12:58:16.346Z,59.90
2022-09-10T13:00:58.829Z,60.45
2022-09-10T13:03:31.130Z,60.13
2022-09-10T13:06:05.885Z,60.63
2022-09-10T13:08:44.362Z,60.34
2022-09-10T13:11:24.428Z,60.75
2022-09-10T13:13:59.970Z,60.65
2022-09-10T13:16:28.694Z,60.78
2022-09-10T13:19:19.104Z,61.08
2022-09-10T13:21:48.714Z,61.32
2022-09-10T13:24:36.746Z,61.60
2022-09-10T13:27:36.191Z,61.78
2022-09-10T13:30:12.577Z,61.98
2022-09-10T13:32:59.538Z,61.84
2022-09-10T13:36:04.922Z,62.20
2022-09-10T13:39:03.118Z,62.24
2022-09-10T13:42:11.433Z,62.38
2022-09-10T13:45:17.094Z,62.49
2022-09-10T13:48:05.166Z,62.80
2022-09-10T13:50:46.517Z,62.84
2022-09-10T13:53:18.379Z,62.88
2022-09-10T13:56:02.331Z,63.08
2022-09-10T13:58:37.942Z,63.17
2022-09-10T14:01:08.116Z,63.18
2022-09-10T14:03:41.246Z,63.84
2022-09-10T14:06:22.584Z,63.54
2022-09-10T14:09:00.411Z,63.91
2022-09-10T14:11:37.537Z,64.26
2022-09-10T14:14:11.835Z,63.92
2022-09-10T14:17:03.306Z,64.48
2022-09-10T14:19:49.755Z,64.35
2022-09-10T14:22:22.991Z,64.50
2022-09-10T14:27:44.710Z,64.64
2022-09-10T14:30:25.296Z,65.03
2022-09-10T14:32:54.452Z,65.69
2022-09-10T14:35:39.912Z,65.38
2022-09-10T14:38:36.702Z,65.79
2022-09-10T14:41:17.209Z,64.84
2022-09-10T14:43:46.318Z,65.37
2022-09-10T14:46:53.646Z,65.37
2022-09-10T14:49:47.657Z,65.92
2022-09-10T14:52:16.553Z,65.41
2022-09-10T14:54:46.569Z,66.11
2022-09-10T14:57:16.802Z,66.25
2022-09-10T14:59:52.179Z,66.03
2022-09-10T15:02:30.093Z,66.29
2022-09-10T15:04:59.127Z,66.31
2022-09-10T15:07:28.430Z,66.44
2022-09-10T15:09:57.179Z,66.77
2022-09-10T15:12:29.086Z,67.13
2022-09-10T15:15:00.695Z,67.16
2022-09-10T15:17:32.454Z,67.03
2022-09-10T15:20:04.174Z,66.91
2022-09-10T15:22:33.445Z,67.06
2022-09-10T15:25:11.190Z,67.26
2022-09-10T15:27:40.475Z,67.23
2022-09-10T15:30:09.515Z,67.39
2022-09-10T15:32:38.241Z,67.68
2022-09-10T15:35:07.375Z,67.85
2022-09-10T15:37:36.077Z,68.07
2022-09-10T15:40:05.375Z,68.10
2022-09-10T15:42:34.399Z,67.59
2022-09-10T15:45:03.255Z,67.49
2022-09-10T15:47:34.084Z,68.66
2022-09-10T15:50:03.937Z,68.35
2022-09-10T15:52:32.705Z,67.99
2022-09-10T15:55:01.562Z,68.67
2022-09-10T15:57:31.648Z,68.28
2022-09-10T16:00:02.329Z,68.21
2022-09-10T16:02:35.276Z,68.21
2022-09-10T16:05:05.345Z,68.50
2022-09-10T16:07:36.623Z,68.81
2022-09-10T16:10:06.887Z,68.99
2022-09-10T16:12:35.728Z,68.51
2022-09-10T16:15:05.625Z,68.24
2022-09-10T16:17:34.313Z,68.01
2022-09-10T16:20:03.289Z,68.21
2022-09-10T16:22:32.518Z,68.05
2022-09-10T16:25:01.303Z,68.80
2022-09-10T16:27:31.828Z,68.54
2022-09-10T16:30:00.559Z,68.72
2022-09-10T16:32:29.905Z,68.31
2022-09-10T16:34:58.684Z,68.45
2022-09-10T16:37:27.461Z,68.67
2022-09-10T16:39:56.262Z,68.38
2022-09-10T16:42:25.668Z,68.82
2022-09-10T16:44:54.388Z,69.02
2022-09-10T16:47:23.276Z,68.62
2022-09-10T16:49:52.425Z,68.58
2022-09-10T16:52:21.159Z,68.95
2022-09-10T16:54:50.162Z,68.97
2022-09-10T16:57:20.240Z,68.30
2022-09-10T16:59:49.382Z,68.36
2022-09-10T17:02:19.161Z,68.58
2022-09-10T17:04:48.722Z,68.60
2022-09-10T17:07:17.593Z,68.05
2022-09-10T17:09:46.330Z,67.98
2022-09-10T17:12:15.387Z,68.29
2022-09-10T17:14:44.032Z,68.38
2022-09-10T17:17:14.467Z,68.46
2022-09-10T17:19:43.524Z,67.99
2022-09-10T17:22:12.414Z,68.86
2022-09-10T17:24:41.114Z,68.96
2022-09-10T17:27:10.603Z,68.72
2022-09-10T17:29:39.395Z,69.00
2022-09-10T17:32:08.091Z,68.74
2022-09-10T17:34:36.844Z,69.09
2022-09-10T17:37:05.819Z,68.93
2022-09-10T17:39:34.627Z,68.76
2022-09-10T17:42:03.336Z,68.93
2022-09-10T17:44:32.164Z,69.47
2022-09-10T17:47:00.903Z,69.41
2022-09-10T17:49:29.630Z,69.02
2022-09-10T17:51:58.443Z,69.61
2022-09-10T17:54:27.194Z,69.23
2022-09-10T17:56:55.898Z,69.95
2022-09-10T17:59:25.882Z,69.54
2022-09-10T18:01:55.132Z,69.68
2022-09-10T18:04:24.160Z,69.84
2022-09-10T18:06:52.911Z,69.77
2022-09-10T18:09:22.570Z,69.73
2022-09-10T18:11:51.331Z,69.78
2022-09-10T18:14:21.172Z,69.55
2022-09-10T18:16:51.822Z,69.96
2022-09-10T18:19:21.487Z,69.76
2022-09-10T18:21:51.613Z,70.11
2022-09-10T18:24:25.658Z,69.55
2022-09-10T18:26:55.724Z,70.04
2022-09-10T18:29:30.617Z,69.79
2022-09-10T18:32:02.206Z,69.84
2022-09-10T18:34:31.916Z,70.38
2022-09-10T18:37:02.412Z,69.85
2022-09-10T18:39:33.453Z,70.18
2022-09-10T18:42:02.927Z,69.87
2022-09-10T18:44:34.785Z,69.77
2022-09-10T18:47:14.260Z,70.17
2022-09-10T18:49:51.493Z,70.02
2022-09-10T18:52:20.385Z,69.61
2022-09-10T18:54:49.510Z,69.82
2022-09-10T18:57:18.291Z,69.78
2022-09-10T18:59:48.333Z,70.25
2022-09-10T19:02:20.534Z,70.18
2022-09-10T19:05:10.139Z,70.01
2022-09-10T19:07:38.094Z,70.17
2022-09-10T19:10:07.709Z,69.84
2022-09-10T19:12:36.456Z,70.11
2022-09-10T19:15:05.470Z,70.08
2022-09-10T19:17:34.483Z,70.48
2022-09-10T19:20:03.533Z,70.75
2022-09-10T19:22:33.761Z,70.30
2022-09-10T19:25:03.970Z,70.53
2022-09-10T19:27:34.012Z,70.47
2022-09-10T19:30:02.698Z,70.40
2022-09-10T19:32:32.511Z,70.86
2022-09-10T19:35:01.855Z,70.66
2022-09-10T19:37:32.028Z,70.82
2022-09-10T19:40:00.739Z,70.68
2022-09-10T19:42:29.453Z,70.52
2022-09-10T19:44:58.186Z,70.75
2022-09-10T19:47:26.927Z,71.30
2022-09-10T19:49:55.960Z,71.03
2022-09-10T19:52:25.888Z,70.83
2022-09-10T19:54:54.743Z,71.58
2022-09-10T19:57:23.501Z,71.06
2022-09-10T19:59:52.219Z,70.89
2022-09-10T20:02:22.887Z,71.14
2022-09-10T20:04:52.376Z,71.36
2022-09-10T20:07:22.270Z,71.60
2022-09-10T20:09:51.105Z,71.23
2022-09-10T20:12:19.849Z,70.68
2022-09-10T20:14:48.591Z,71.42
2022-09-10T20:17:17.694Z,71.50
2022-09-10T20:19:46.417Z,70.87
2022-09-10T20:22:15.150Z,71.35
2022-09-10T20:24:43.939Z,71.65
2022-09-10T20:27:13.264Z,71.10
2022-09-10T20:29:42.116Z,71.92
2022-09-10T20:32:10.856Z,71.51
2022-09-10T20:34:39.526Z,71.56
2022-09-10T20:37:08.385Z,71.40
2022-09-10T20:39:38.843Z,72.12
2022-09-10T20:42:08.697Z,72.11
2022-09-10T20:44:37.568Z,71.68
2022-09-10T20:47:08.487Z,71.86
2022-09-10T20:49:38.002Z,72.19
2022-09-10T20:52:07.675Z,71.37
2022-09-10T20:54:36.564Z,71.63
2022-09-10T20:57:05.293Z,71.98
2022-09-10T20:59:33.948Z,71.46
2022-09-10T21:02:03.511Z,71.94
2022-09-10T21:04:33.759Z,71.87
2022-09-10T21:07:02.554Z,71.95
2022-09-10T21:09:31.369Z,71.78
2022-09-10T21:12:00.412Z,71.77
2022-09-10T21:14:29.187Z,71.03
2022-09-10T21:16:57.885Z,71.78
2022-09-10T21:19:29.657Z,71.77
2022-09-10T21:21:58.588Z,71.98
2022-09-10T21:24:27.750Z,71.75
2022-09-10T21:26:56.905Z,71.69
2022-09-10T21:29:25.606Z,71.72
2022-09-10T21:31:56.662Z,71.21
2022-09-10T21:34:25.499Z,72.25
2022-09-10T21:36:54.228Z,72.04
2022-09-10T21:39:23.017Z,72.23
2022-09-10T21:41:51.925Z,71.92
2022-09-10T21:44:23.535Z,72.05
2022-09-10T21:46:53.541Z,72.13
2022-09-10T21:49:22.307Z,71.90
2022-09-10T21:51:51.196Z,72.01
2022-09-10T21:54:22.557Z,72.46
2022-09-10T21:56:52.307Z,72.27
2022-09-10T21:59:21.921Z,72.19
2022-09-10T22:01:51.881Z,71.97
2022-09-10T22:04:23.269Z,72.92
2022-09-10T22:06:54.977Z,72.31
2022-09-10T22:09:24.888Z,72.38
2022-09-10T22:11:54.915Z,72.96
2022-09-10T22:14:25.160Z,72.12
2022-09-10T22:16:54.421Z,72.18
2022-09-10T22:19:25.492Z,72.66
2022-09-10T22:21:57.963Z,72.64
2022-09-10T22:24:26.795Z,72.67
2022-09-10T22:26:55.614Z,72.79
2022-09-10T22:29:25.238Z,73.12
2022-09-10T22:31:54.064Z,73.13
2022-09-10T22:34:23.147Z,72.66
2022-09-10T22:36:51.866Z,73.08
2022-09-10T22:39:21.977Z,72.79
2022-09-10T22:41:51.812Z,72.48
2022-09-10T22:44:20.738Z,72.49
2022-09-10T22:46:49.868Z,72.86
2022-09-10T22:49:18.710Z,72.83
2022-09-10T22:51:47.533Z,72.09
2022-09-10T22:54:17.189Z,72.33
2022-09-10T22:56:46.034Z,72.82
2022-09-10T22:59:15.900Z,72.43
2022-09-10T23:01:48.950Z,72.48
2022-09-10T23:04:18.233Z,72.22
2022-09-10T23:06:47.174Z,72.23
2022-09-10T23:09:18.262Z,72.16
2022-09-10T23:11:47.383Z,72.75
2022-09-10T23:14:22.537Z,72.82
2022-09-10T23:16:52.536Z,72.79
2022-09-10T23:19:23.714Z,72.52
2022-09-10T23:21:55.027Z,72.84
2022-09-10T23:24:26.890Z,72.02
2022-09-10T23:26:56.064Z,72.44
2022-09-10T23:29:24.978Z,72.19
2022-09-10T23:31:54.833Z,72.53
2022-09-10T23:34:23.977Z,72.17
2022-09-10T23:37:10.908Z,71.97
2022-09-10T23:39:40.129Z,71.71
2022-09-10T23:42:09.443Z,71.68
2022-09-10T23:44:38.242Z,72.28
2022-09-10T23:47:07.532Z,72.14
2022-09-10T23:49:36.361Z,71.96
2022-09-10T23:52:05.098Z,72.05
2022-09-10T23:54:34.534Z,71.66
2022-09-10T23:57:03.467Z,71.30
2022-09-10T23:59:32.200Z,71.77
